createdAt,value
2022-11-21T00:01:14.971Z,2.25
2022-11-21T00:03:41.523Z,2.75
2022-11-21T00:06:08.079Z,2.47
2022-11-21T00:08:34.636Z,3.03
2022-11-21T00:11:01.262Z,2.60
2022-11-21T00:13:27.827Z,1.80
2022-11-21T00:15:54.382Z,2.50
2022-11-21T00:18:20.919Z,2.65
2022-11-21T00:20:47.467Z,2.03
2022-11-21T00:23:14.006Z,2.38
2022-11-21T00:25:40.559Z,2.10
2022-11-21T00:28:07.116Z,2.30
2022-11-21T00:30:33.675Z,2.50
2022-11-21T00:33:00.240Z,2.22
2022-11-21T00:35:27.198Z,2.00
2022-11-21T00:37:53.808Z,1.67
2022-11-21T00:40:20.385Z,2.75
2022-11-21T00:42:46.941Z,2.35
2022-11-21T00:45:13.510Z,3.20
2022-11-21T00:47:40.071Z,2.00
2022-11-21T00:50:06.964Z,2.75
2022-11-21T00:52:33.539Z,2.65
2022-11-21T00:55:00.140Z,2.03
2022-11-21T00:57:26.682Z,2.38
2022-11-21T00:59:53.234Z,1.75
2022-11-21T01:02:19.856Z,2.40
2022-11-21T01:04:46.387Z,2.10
2022-11-21T01:07:14.584Z,1.77
2022-11-21T01:09:41.366Z,2.45
2022-11-21T01:12:08.000Z,2.53
2022-11-21T01:14:34.563Z,2.28
2022-11-21T01:17:01.114Z,2.10
2022-11-21T01:19:27.647Z,2.90
2022-11-21T01:21:54.203Z,1.95
2022-11-21T01:24:20.745Z,1.90
2022-11-21T01:26:49.150Z,2.10
2022-11-21T01:29:15.686Z,2.50
2022-11-21T01:31:42.207Z,1.90
2022-11-21T01:34:09.099Z,2.67
2022-11-21T01:36:35.860Z,2.35
2022-11-21T01:39:05.031Z,2.15
2022-11-21T01:41:36.696Z,2.38
2022-11-21T01:44:10.588Z,2.20
2022-11-21T01:46:37.148Z,2.40
2022-11-21T01:49:06.585Z,2.72
2022-11-21T01:51:47.955Z,2.97
2022-11-21T01:54:23.973Z,2.50
2022-11-21T01:57:08.243Z,2.10
2022-11-21T01:59:56.130Z,2.83
2022-11-21T02:02:25.628Z,2.30
2022-11-21T02:04:53.103Z,1.83
2022-11-21T02:07:21.556Z,2.55
2022-11-21T02:09:52.162Z,2.17
2022-11-21T02:12:23.988Z,2.42
2022-11-21T02:14:51.439Z,2.25
2022-11-21T02:17:18.566Z,2.00
2022-11-21T02:19:49.581Z,2.33
2022-11-21T02:22:33.199Z,2.63
2022-11-21T02:25:04.417Z,2.58
2022-11-21T02:27:31.008Z,2.42
2022-11-21T02:29:57.648Z,2.58
2022-11-21T02:32:26.339Z,1.95
2022-11-21T02:34:52.899Z,2.67
2022-11-21T02:37:19.563Z,2.40
2022-11-21T02:39:46.908Z,2.45
2022-11-21T02:42:22.139Z,2.15
2022-11-21T02:44:57.979Z,2.50
2022-11-21T02:47:24.736Z,2.70
2022-11-21T02:49:57.097Z,2.75
2022-11-21T02:52:23.806Z,2.70
2022-11-21T02:54:50.379Z,2.97
2022-11-21T02:57:16.918Z,2.30
2022-11-21T02:59:43.471Z,2.50
2022-11-21T03:02:10.032Z,2.67
2022-11-21T03:04:36.575Z,2.10
2022-11-21T03:07:03.203Z,2.75
2022-11-21T03:09:29.831Z,2.22
2022-11-21T03:11:56.372Z,2.65
2022-11-21T03:14:22.951Z,3.15
2022-11-21T03:16:49.491Z,2.33
2022-11-21T03:19:16.033Z,2.88
2022-11-21T03:21:42.570Z,2.65
2022-11-21T03:24:09.144Z,2.40
2022-11-21T03:26:35.690Z,2.40
2022-11-21T03:29:02.289Z,2.50
2022-11-21T03:31:28.829Z,2.95
2022-11-21T03:33:55.391Z,2.78
2022-11-21T03:36:21.939Z,2.45
2022-11-21T03:38:48.500Z,2.70
2022-11-21T03:41:29.933Z,2.47
2022-11-21T03:44:05.383Z,2.30
2022-11-21T03:46:36.684Z,2.92
2022-11-21T03:49:04.032Z,2.70
2022-11-21T03:51:30.755Z,3.85
2022-11-21T03:53:57.512Z,2.60
2022-11-21T03:56:24.617Z,2.90
2022-11-21T03:58:51.531Z,2.22
2022-11-21T04:01:18.424Z,2.28
2022-11-21T04:03:45.391Z,2.50
2022-11-21T04:06:14.222Z,2.35
2022-11-21T04:08:40.846Z,3.25
2022-11-21T04:11:07.598Z,2.17
2022-11-21T04:13:34.314Z,2.60
2022-11-21T04:16:00.901Z,2.03
2022-11-21T04:18:27.463Z,2.90
2022-11-21T04:20:58.207Z,2.30
2022-11-21T04:23:25.561Z,2.15
2022-11-21T04:25:52.278Z,2.25
2022-11-21T04:28:19.143Z,2.70
2022-11-21T04:30:45.666Z,2.30
2022-11-21T04:33:13.876Z,2.33
2022-11-21T04:35:40.427Z,2.50
2022-11-21T04:38:06.961Z,2.28
2022-11-21T04:40:33.520Z,2.50
2022-11-21T04:43:00.056Z,2.72
2022-11-21T04:45:26.615Z,2.28
2022-11-21T04:47:53.355Z,2.28
2022-11-21T04:50:20.222Z,2.70
2022-11-21T04:52:53.655Z,2.55
2022-11-21T04:55:21.691Z,2.30
2022-11-21T04:57:48.419Z,2.70
2022-11-21T05:00:24.056Z,2.38
2022-11-21T05:02:51.131Z,2.08
2022-11-21T05:05:17.716Z,2.58
2022-11-21T05:07:44.319Z,2.38
2022-11-21T05:10:10.963Z,2.80
2022-11-21T05:12:55.755Z,2.30
2022-11-21T05:15:24.831Z,2.33
2022-11-21T05:17:52.066Z,2.38
2022-11-21T05:20:19.112Z,2.00
2022-11-21T05:22:49.926Z,1.80
2022-11-21T05:25:16.787Z,2.58
2022-11-21T05:27:43.406Z,1.92
2022-11-21T05:30:11.330Z,2.38
2022-11-21T05:32:37.893Z,2.20
2022-11-21T05:35:04.606Z,2.15
2022-11-21T05:37:31.172Z,2.42
2022-11-21T05:39:57.754Z,2.58
2022-11-21T05:42:44.264Z,1.90
2022-11-21T05:45:10.993Z,2.35
2022-11-21T05:47:37.568Z,1.98
2022-11-21T05:50:04.667Z,2.92
2022-11-21T05:52:31.202Z,2.53
2022-11-21T05:54:57.773Z,2.00
2022-11-21T05:57:24.328Z,2.15
2022-11-21T05:59:50.878Z,1.85
2022-11-21T06:02:35.836Z,2.10
2022-11-21T06:05:04.694Z,2.50
2022-11-21T06:07:31.292Z,2.40
2022-11-21T06:09:57.890Z,2.03
2022-11-21T06:12:25.792Z,2.10
2022-11-21T06:14:52.483Z,2.08
2022-11-21T06:17:19.251Z,2.58
2022-11-21T06:19:45.798Z,2.45
2022-11-21T06:22:12.403Z,2.75
2022-11-21T06:24:38.987Z,2.10
2022-11-21T06:27:05.558Z,2.03
2022-11-21T06:29:32.112Z,2.85
2022-11-21T06:31:58.665Z,2.35
2022-11-21T06:34:27.159Z,2.80
2022-11-21T06:36:54.216Z,2.25
2022-11-21T06:39:20.773Z,3.20
2022-11-21T06:41:51.214Z,2.45
2022-11-21T06:44:20.792Z,2.35
2022-11-21T06:46:51.177Z,2.22
2022-11-21T06:49:18.416Z,1.90
2022-11-21T06:51:46.137Z,1.90
2022-11-21T06:54:16.498Z,3.30
2022-11-21T06:56:43.607Z,2.53
2022-11-21T06:59:10.239Z,2.20
2022-11-21T07:01:37.035Z,2.25
2022-11-21T07:04:03.682Z,2.08
2022-11-21T07:06:32.807Z,2.00
2022-11-21T07:09:31.209Z,2.28
2022-11-21T07:11:45.928Z,2.75
2022-11-21T07:14:12.482Z,2.97
2022-11-21T07:16:39.060Z,2.05
2022-11-21T07:19:05.662Z,1.90
2022-11-21T07:21:32.296Z,2.40
2022-11-21T07:23:58.890Z,2.10
2022-11-21T07:26:25.467Z,2.60
2022-11-21T07:28:52.010Z,2.13
2022-11-21T07:31:18.585Z,1.67
2022-11-21T07:33:46.764Z,2.17
2022-11-21T07:36:13.651Z,2.28
2022-11-21T07:38:41.438Z,2.15
2022-11-21T07:41:08.663Z,4.97
2022-11-21T07:43:35.261Z,5.40
2022-11-21T07:46:01.886Z,5.72
2022-11-21T07:48:28.487Z,6.88
2022-11-21T07:50:55.042Z,5.95
2022-11-21T07:53:21.634Z,7.30
2022-11-21T07:55:48.339Z,7.20
2022-11-21T07:58:16.985Z,8.13
2022-11-21T08:00:43.682Z,7.20
2022-11-21T08:03:12.197Z,11.00
2022-11-21T08:05:42.607Z,6.85
2022-11-21T08:08:10.423Z,8.38
2022-11-21T08:10:38.820Z,10.65
2022-11-21T08:13:05.567Z,9.15
2022-11-21T08:15:32.257Z,12.02
2022-11-21T08:17:58.807Z,11.60
2022-11-21T08:20:25.411Z,12.30
2022-11-21T08:22:51.992Z,14.20
2022-11-21T08:25:18.546Z,12.40
2022-11-21T08:27:45.153Z,12.35
2022-11-21T08:30:12.366Z,11.63
2022-11-21T08:32:38.943Z,12.93
2022-11-21T08:35:06.136Z,10.43
2022-11-21T08:37:32.705Z,9.40
2022-11-21T08:39:59.240Z,11.95
2022-11-21T08:42:26.082Z,13.25
2022-11-21T08:44:52.689Z,9.77
2022-11-21T08:47:20.613Z,11.05
2022-11-21T08:49:47.919Z,13.73
2022-11-21T08:52:17.334Z,10.43
2022-11-21T08:54:47.155Z,10.93
2022-11-21T08:57:13.719Z,14.40
2022-11-21T08:59:40.345Z,12.02
2022-11-21T09:02:07.155Z,11.52
2022-11-21T09:04:33.794Z,11.30
2022-11-21T09:07:00.884Z,18.13
2022-11-21T09:09:27.640Z,13.18
2022-11-21T09:11:54.187Z,11.43
2022-11-21T09:14:39.587Z,14.57
2022-11-21T09:17:25.219Z,14.48
2022-11-21T09:19:51.764Z,15.75
2022-11-21T09:22:18.311Z,13.70
2022-11-21T09:24:44.896Z,16.02
2022-11-21T09:27:11.455Z,14.80
2022-11-21T09:29:38.005Z,15.48
2022-11-21T09:32:04.760Z,14.73
2022-11-21T09:34:31.906Z,16.67
2022-11-21T09:36:58.531Z,11.77
2022-11-21T09:39:25.689Z,14.20
2022-11-21T09:41:59.511Z,15.85
2022-11-21T09:44:39.343Z,13.68
2022-11-21T09:47:33.235Z,15.48
2022-11-21T09:50:07.706Z,12.65
2022-11-21T09:52:41.478Z,11.07
2022-11-21T09:55:20.839Z,14.57
2022-11-21T09:57:48.791Z,13.70
2022-11-21T10:00:25.401Z,16.40
2022-11-21T10:02:52.483Z,11.95
2022-11-21T10:05:26.102Z,10.40
2022-11-21T10:07:54.085Z,12.50
2022-11-21T10:10:56.313Z,11.40
2022-11-21T10:13:35.316Z,12.88
2022-11-21T10:16:27.059Z,13.32
2022-11-21T10:19:08.732Z,16.00
2022-11-21T10:21:53.578Z,11.65
2022-11-21T10:24:20.153Z,11.35
2022-11-21T10:27:01.240Z,10.32
2022-11-21T10:29:32.741Z,8.48
2022-11-21T10:32:04.121Z,9.15
2022-11-21T10:34:34.279Z,8.32
2022-11-21T10:37:11.597Z,12.52
2022-11-21T10:39:42.250Z,11.55
2022-11-21T10:42:24.912Z,9.57
2022-11-21T10:45:10.396Z,7.38
2022-11-21T10:47:39.956Z,8.00
2022-11-21T10:50:09.219Z,8.88
2022-11-21T10:52:51.295Z,9.23
2022-11-21T10:55:18.555Z,9.93
2022-11-21T10:57:45.395Z,8.15
2022-11-21T11:00:14.844Z,6.57
2022-11-21T11:02:43.153Z,8.80
2022-11-21T11:05:22.186Z,9.18
2022-11-21T11:08:09.838Z,8.00
2022-11-21T11:11:09.842Z,7.88
2022-11-21T11:13:56.203Z,8.85
2022-11-21T11:16:24.472Z,7.88
2022-11-21T11:18:54.035Z,8.57
2022-11-21T11:21:23.180Z,9.43
2022-11-21T11:23:51.242Z,9.35
2022-11-21T11:26:48.142Z,6.43
2022-11-21T11:29:17.967Z,5.80
2022-11-21T11:31:54.368Z,7.70
2022-11-21T11:34:21.476Z,7.38
2022-11-21T11:36:56.500Z,7.20
2022-11-21T11:39:27.685Z,7.32
2022-11-21T11:42:18.860Z,5.72
2022-11-21T11:45:12.559Z,5.82
2022-11-21T11:47:54.946Z,6.20
2022-11-21T11:50:45.076Z,6.65
2022-11-21T11:53:12.616Z,6.57
2022-11-21T11:55:47.522Z,8.73
2022-11-21T11:58:26.655Z,5.75
2022-11-21T12:00:59.019Z,7.55
2022-11-21T12:03:33.618Z,7.18
2022-11-21T12:06:09.234Z,5.65
2022-11-21T12:08:47.555Z,5.55
2022-11-21T12:11:44.267Z,5.95
2022-11-21T12:14:40.620Z,5.70
2022-11-21T12:17:09.166Z,6.40
2022-11-21T12:19:37.120Z,5.82
2022-11-21T12:22:06.477Z,6.75
2022-11-21T12:24:38.297Z,5.35
2022-11-21T12:27:26.227Z,6.07
2022-11-21T12:30:14.905Z,5.55
2022-11-21T12:32:58.754Z,4.93
2022-11-21T12:36:01.218Z,4.72
2022-11-21T12:38:50.750Z,3.92
2022-11-21T12:41:53.644Z,4.97
2022-11-21T12:44:37.378Z,4.43
2022-11-21T12:50:17.938Z,7.60
2022-11-21T12:53:09.103Z,5.88
2022-11-21T12:55:40.065Z,3.75
2022-11-21T12:58:32.598Z,5.30
2022-11-21T13:01:14.407Z,4.22
2022-11-21T13:03:57.272Z,5.43
2022-11-21T13:06:27.371Z,5.00
2022-11-21T13:08:55.893Z,5.22
2022-11-21T13:11:47.082Z,4.78
2022-11-21T13:14:37.604Z,4.32
2022-11-21T13:17:06.822Z,4.55
2022-11-21T13:19:45.619Z,5.20
2022-11-21T13:22:37.002Z,5.68
2022-11-21T13:25:38.347Z,4.53
2022-11-21T13:28:13.686Z,4.35
2022-11-21T13:31:25.408Z,5.25
2022-11-21T13:33:52.061Z,3.50
2022-11-21T13:36:32.071Z,5.30
2022-11-21T13:38:58.553Z,4.55
2022-11-21T13:41:52.681Z,4.90
2022-11-21T13:44:31.112Z,5.07
2022-11-21T13:47:02.696Z,4.00
2022-11-21T13:49:49.147Z,4.30
2022-11-21T13:53:00.735Z,4.97
2022-11-21T13:55:36.182Z,5.10
2022-11-21T13:58:02.639Z,4.22
2022-11-21T14:00:44.091Z,4.50
2022-11-21T14:03:30.552Z,4.10
2022-11-21T14:06:15.702Z,4.68
2022-11-21T14:08:43.771Z,3.72
2022-11-21T14:11:49.897Z,5.38
2022-11-21T14:14:30.080Z,5.10
2022-11-21T14:17:33.288Z,4.32
2022-11-21T14:20:01.743Z,4.03
2022-11-21T14:22:45.779Z,3.65
2022-11-21T14:25:17.811Z,3.45
2022-11-21T14:27:47.243Z,3.72
2022-11-21T14:30:34.518Z,3.38
2022-11-21T14:33:23.707Z,3.67
2022-11-21T14:36:04.103Z,3.83
2022-11-21T14:38:35.271Z,3.90
2022-11-21T14:41:34.529Z,3.45
2022-11-21T14:44:02.237Z,3.80
2022-11-21T14:46:36.736Z,3.22
2022-11-21T14:49:12.422Z,3.35
2022-11-21T14:51:40.593Z,3.80
2022-11-21T14:54:13.776Z,4.13
2022-11-21T14:56:40.460Z,3.03
2022-11-21T14:59:15.862Z,3.72
2022-11-21T15:01:55.245Z,3.85
2022-11-21T15:04:28.250Z,2.80
2022-11-21T15:06:55.167Z,3.33
2022-11-21T15:12:09.803Z,2.72
2022-11-21T15:14:52.639Z,3.22
2022-11-21T15:17:21.851Z,3.00
2022-11-21T15:20:22.944Z,3.67
2022-11-21T15:22:50.382Z,2.63
2022-11-21T15:25:22.014Z,3.97
2022-11-21T15:28:00.698Z,3.42
2022-11-21T15:30:34.471Z,3.53
2022-11-21T15:33:07.900Z,4.43
2022-11-21T15:35:47.691Z,3.42
2022-11-21T15:38:46.941Z,3.13
2022-11-21T15:41:14.434Z,3.20
2022-11-21T15:43:46.295Z,3.40
2022-11-21T15:46:19.822Z,3.28
2022-11-21T15:51:20.434Z,3.25
2022-11-21T15:53:58.593Z,3.42
2022-11-21T15:56:25.194Z,3.38
2022-11-21T15:58:51.968Z,3.08
2022-11-21T16:01:20.952Z,3.13
2022-11-21T16:03:56.467Z,3.35
2022-11-21T16:06:23.420Z,3.03
2022-11-21T16:08:50.380Z,4.40
2022-11-21T16:11:25.901Z,3.15
2022-11-21T16:13:54.479Z,3.80
2022-11-21T16:16:22.668Z,3.17
2022-11-21T16:18:49.210Z,3.95
2022-11-21T16:21:16.140Z,3.35
2022-11-21T16:23:42.976Z,3.58
2022-11-21T16:26:10.424Z,3.35
2022-11-21T16:28:37.269Z,3.83
2022-11-21T16:31:04.955Z,3.72
2022-11-21T16:33:33.238Z,3.42
2022-11-21T16:35:59.923Z,3.33
2022-11-21T16:38:28.554Z,3.35
2022-11-21T16:40:56.254Z,3.03
2022-11-21T16:43:23.892Z,4.13
2022-11-21T16:45:51.176Z,4.15
2022-11-21T16:48:17.735Z,3.90
2022-11-21T16:50:44.383Z,3.30
2022-11-21T16:53:10.908Z,3.42
2022-11-21T16:55:37.461Z,3.25
2022-11-21T16:58:04.046Z,3.20
2022-11-21T17:00:30.706Z,3.25
2022-11-21T17:02:58.090Z,3.63
2022-11-21T17:05:25.110Z,4.00
2022-11-21T17:07:51.709Z,3.42
2022-11-21T17:10:18.518Z,3.72
2022-11-21T17:12:45.107Z,3.70
2022-11-21T17:15:13.896Z,3.72
2022-11-21T17:17:40.682Z,3.83
2022-11-21T17:20:08.568Z,3.72
2022-11-21T17:22:35.227Z,4.25
2022-11-21T17:25:01.767Z,4.18
2022-11-21T17:27:28.347Z,5.95
2022-11-21T17:29:54.899Z,4.28
2022-11-21T17:32:21.568Z,4.13
2022-11-21T17:34:48.091Z,4.20
2022-11-21T17:37:14.935Z,4.10
2022-11-21T17:39:41.530Z,3.67
2022-11-21T17:42:08.083Z,5.15
2022-11-21T17:44:34.644Z,5.50
2022-11-21T17:47:02.104Z,4.50
2022-11-21T17:49:30.402Z,3.88
2022-11-21T17:51:57.139Z,5.63
2022-11-21T17:54:23.868Z,5.13
2022-11-21T17:56:55.373Z,5.07
2022-11-21T17:59:23.406Z,3.88
2022-11-21T18:01:50.003Z,5.70
2022-11-21T18:04:17.844Z,5.15
2022-11-21T18:06:44.397Z,4.43
2022-11-21T18:09:11.838Z,3.75
2022-11-21T18:11:40.337Z,4.07
2022-11-21T18:14:07.998Z,6.25
2022-11-21T18:16:34.571Z,4.47
2022-11-21T18:19:01.255Z,3.33
2022-11-21T18:21:33.407Z,5.35
2022-11-21T18:24:00.290Z,4.93
2022-11-21T18:26:35.446Z,4.55
2022-11-21T18:31:49.857Z,5.20
2022-11-21T18:34:16.402Z,4.55
2022-11-21T18:36:42.945Z,5.30
2022-11-21T18:39:14.812Z,3.70
2022-11-21T18:41:42.697Z,4.80
2022-11-21T18:44:10.086Z,4.63
2022-11-21T18:46:37.448Z,4.13
2022-11-21T18:49:07.399Z,4.35
2022-11-21T18:51:35.206Z,4.57
2022-11-21T18:54:08.130Z,5.22
2022-11-21T18:56:36.291Z,4.45
2022-11-21T18:59:04.558Z,7.13
2022-11-21T19:01:32.851Z,7.30
2022-11-21T19:03:59.743Z,6.55
2022-11-21T19:06:26.800Z,7.45
2022-11-21T19:08:55.251Z,6.72
2022-11-21T19:11:24.462Z,5.75
2022-11-21T19:13:52.183Z,7.65
2022-11-21T19:16:20.784Z,7.55
2022-11-21T19:19:05.496Z,6.70
2022-11-21T19:21:37.769Z,7.32
2022-11-21T19:24:06.981Z,7.00
2022-11-21T19:26:33.619Z,9.13
2022-11-21T19:29:00.335Z,7.03
2022-11-21T19:31:26.899Z,9.43
2022-11-21T19:33:53.459Z,6.63
2022-11-21T19:36:21.835Z,8.93
2022-11-21T19:38:51.232Z,10.93
2022-11-21T19:41:25.418Z,12.27
2022-11-21T19:43:57.281Z,6.03
2022-11-21T19:46:26.591Z,14.98
2022-11-21T19:48:54.715Z,9.10
2022-11-21T19:51:22.973Z,8.77
2022-11-21T19:53:49.558Z,10.65
2022-11-21T19:56:24.157Z,7.82
2022-11-21T19:58:51.491Z,7.50
2022-11-21T20:01:20.114Z,7.05
2022-11-21T20:03:48.451Z,8.93
2022-11-21T20:06:20.687Z,6.20
2022-11-21T20:08:54.738Z,7.55
2022-11-21T20:11:21.998Z,9.40
2022-11-21T20:13:49.523Z,6.63
2022-11-21T20:16:21.974Z,6.57
2022-11-21T20:18:48.768Z,6.53
2022-11-21T20:21:15.584Z,5.82
2022-11-21T20:23:42.505Z,6.75
2022-11-21T20:26:09.580Z,8.25
2022-11-21T20:28:36.854Z,6.47
2022-11-21T20:31:14.861Z,10.15
2022-11-21T20:33:43.609Z,9.55
2022-11-21T20:36:12.379Z,6.88
2022-11-21T20:38:38.908Z,7.65
2022-11-21T20:41:05.881Z,6.63
2022-11-21T20:43:52.973Z,7.20
2022-11-21T20:46:21.015Z,5.57
2022-11-21T20:48:47.948Z,5.72
2022-11-21T20:54:03.660Z,6.68
2022-11-21T20:56:34.663Z,5.97
2022-11-21T20:59:01.910Z,9.25
2022-11-21T21:01:28.729Z,5.90
2022-11-21T21:03:55.774Z,6.82
2022-11-21T21:06:24.327Z,7.00
2022-11-21T21:08:51.601Z,5.93
2022-11-21T21:11:49.709Z,7.25
2022-11-21T21:14:07.851Z,8.13
2022-11-21T21:16:34.567Z,5.65
2022-11-21T21:19:01.201Z,6.10
2022-11-21T21:21:30.596Z,5.72
2022-11-21T21:24:05.107Z,7.13
2022-11-21T21:26:38.742Z,5.85
2022-11-21T21:29:08.242Z,5.68
2022-11-21T21:31:37.625Z,5.20
2022-11-21T21:37:41.951Z,6.28
2022-11-21T21:40:09.011Z,6.75
2022-11-21T21:42:35.543Z,5.97
2022-11-21T21:45:02.679Z,6.03
2022-11-21T21:47:29.239Z,5.60
2022-11-21T21:49:55.766Z,6.97
2022-11-21T21:52:22.289Z,4.93
2022-11-21T21:54:48.915Z,5.18
2022-11-21T21:57:15.443Z,6.80
2022-11-21T21:59:41.994Z,5.60
2022-11-21T22:02:11.291Z,5.60
2022-11-21T22:04:37.891Z,5.78
2022-11-21T22:07:05.576Z,4.57
2022-11-21T22:09:32.350Z,6.22
2022-11-21T22:11:59.003Z,5.45
2022-11-21T22:14:25.535Z,5.22
2022-11-21T22:16:52.206Z,6.90
2022-11-21T22:19:20.931Z,5.07
2022-11-21T22:21:47.475Z,5.28
2022-11-21T22:24:30.784Z,4.80
2022-11-21T22:26:57.559Z,5.65
2022-11-21T22:29:24.205Z,5.28
2022-11-21T22:31:51.573Z,6.35
2022-11-21T22:34:18.180Z,5.20
2022-11-21T22:36:44.828Z,4.93
2022-11-21T22:39:11.381Z,6.15
2022-11-21T22:41:38.108Z,4.82
2022-11-21T22:44:04.772Z,5.05
2022-11-21T22:46:31.633Z,5.00
2022-11-21T22:48:58.410Z,6.03
2022-11-21T22:51:26.906Z,5.00
2022-11-21T22:53:53.455Z,6.68
2022-11-21T22:56:21.788Z,5.28
2022-11-21T22:58:48.977Z,6.18
2022-11-21T23:01:18.670Z,4.63
2022-11-21T23:03:45.611Z,5.55
2022-11-21T23:06:15.009Z,5.47
2022-11-21T23:08:41.979Z,4.50
2022-11-21T23:11:11.437Z,4.53
2022-11-21T23:13:39.072Z,5.32
2022-11-21T23:16:06.596Z,4.32
2022-11-21T23:18:33.852Z,5.88
2022-11-21T23:21:01.163Z,4.43
2022-11-21T23:23:27.911Z,4.82
2022-11-21T23:25:54.482Z,4.72
2022-11-21T23:28:21.312Z,5.85
2022-11-21T23:30:49.143Z,5.53
2022-11-21T23:33:16.284Z,7.07
2022-11-21T23:35:43.717Z,5.47
2022-11-21T23:38:10.884Z,4.20
2022-11-21T23:40:37.503Z,4.60
2022-11-21T23:43:04.350Z,3.92
2022-11-21T23:45:30.891Z,4.80
2022-11-21T23:47:57.432Z,4.63
2022-11-21T23:50:23.987Z,4.65
2022-11-21T23:52:50.620Z,4.95
2022-11-21T23:55:17.473Z,5.22
2022-11-21T23:57:48.382Z,7.13
